createdAt,value
2023-03-15T00:02:06.558Z,2.10
2023-03-15T00:05:13.055Z,1.58
2023-03-15T00:08:15.646Z,1.10
2023-03-15T00:11:18.628Z,1.45
2023-03-15T00:14:21.448Z,1.30
2023-03-15T00:17:23.411Z,1.30
2023-03-15T00:20:25.361Z,1.30
2023-03-15T00:23:27.059Z,1.58
2023-03-15T00:26:28.779Z,1.60
2023-03-15T00:29:30.506Z,1.50
2023-03-15T00:32:32.529Z,1.75
2023-03-15T00:35:39.480Z,1.50
2023-03-15T00:38:44.109Z,1.25
2023-03-15T00:41:46.214Z,1.60
2023-03-15T00:44:47.901Z,1.23
2023-03-15T00:47:51.122Z,1.90
2023-03-15T00:51:04.003Z,1.63
2023-03-15T00:54:05.810Z,1.25
2023-03-15T00:57:07.981Z,1.65
2023-03-15T01:00:13.940Z,1.10
2023-03-15T01:03:15.845Z,1.20
2023-03-15T01:06:22.516Z,1.20
2023-03-15T01:09:24.827Z,1.85
2023-03-15T01:12:26.591Z,1.45
2023-03-15T01:15:29.312Z,1.20
2023-03-15T01:18:31.276Z,1.08
2023-03-15T01:21:32.933Z,2.03
2023-03-15T01:24:34.526Z,1.70
2023-03-15T01:27:36.565Z,1.60
2023-03-15T01:30:38.453Z,1.42
2023-03-15T01:33:40.466Z,1.33
2023-03-15T01:36:42.491Z,1.95
2023-03-15T01:39:44.552Z,1.25
2023-03-15T01:42:53.669Z,1.35
2023-03-15T01:45:55.405Z,1.50
2023-03-15T01:49:04.836Z,1.30
2023-03-15T01:52:15.928Z,1.40
2023-03-15T01:55:24.712Z,1.30
2023-03-15T01:58:42.071Z,1.40
2023-03-15T02:01:45.838Z,1.67
2023-03-15T02:05:10.175Z,1.50
2023-03-15T02:08:13.284Z,1.85
2023-03-15T02:11:19.579Z,1.42
2023-03-15T02:14:22.647Z,1.77
2023-03-15T02:17:33.814Z,1.38
2023-03-15T02:21:21.164Z,1.50
2023-03-15T02:25:29.742Z,1.73
2023-03-15T02:28:39.854Z,1.38
2023-03-15T02:31:41.906Z,1.75
2023-03-15T02:34:43.570Z,1.65
2023-03-15T02:37:45.838Z,1.67
2023-03-15T02:40:47.670Z,1.70
2023-03-15T02:43:52.988Z,1.50
2023-03-15T02:46:59.625Z,2.20
2023-03-15T02:50:01.148Z,3.15
2023-03-15T02:53:05.809Z,1.90
2023-03-15T02:56:07.856Z,2.03
2023-03-15T02:59:09.560Z,1.92
2023-03-15T03:02:12.530Z,1.65
2023-03-15T03:05:17.229Z,1.40
2023-03-15T03:08:18.966Z,2.42
2023-03-15T03:11:20.701Z,2.00
2023-03-15T03:14:25.558Z,2.70
2023-03-15T03:17:27.516Z,2.58
2023-03-15T03:20:29.519Z,2.47
2023-03-15T03:23:32.213Z,2.90
2023-03-15T03:26:34.370Z,2.50
2023-03-15T03:29:36.512Z,2.47
2023-03-15T03:32:48.262Z,3.17
2023-03-15T03:35:50.300Z,3.00
2023-03-15T03:38:53.911Z,2.55
2023-03-15T03:41:56.924Z,2.92
2023-03-15T03:44:58.725Z,2.47
2023-03-15T03:48:09.311Z,3.42
2023-03-15T03:51:23.685Z,3.00
2023-03-15T03:54:25.708Z,2.80
2023-03-15T03:57:27.636Z,2.70
2023-03-15T04:00:29.425Z,2.85
2023-03-15T04:03:31.684Z,2.53
2023-03-15T04:06:45.766Z,2.45
2023-03-15T04:09:48.607Z,3.10
2023-03-15T04:12:50.448Z,2.47
2023-03-15T04:15:57.901Z,2.88
2023-03-15T04:19:05.693Z,2.92
2023-03-15T04:22:08.796Z,3.55
2023-03-15T04:25:29.173Z,2.97
2023-03-15T04:28:44.034Z,2.92
2023-03-15T04:32:04.543Z,2.63
2023-03-15T04:35:26.686Z,3.13
2023-03-15T04:38:35.827Z,2.90
2023-03-15T04:41:56.232Z,2.83
2023-03-15T04:45:04.788Z,2.45
2023-03-15T04:48:31.141Z,2.33
2023-03-15T04:51:51.990Z,2.40
2023-03-15T04:55:13.924Z,2.40
2023-03-15T04:58:54.380Z,2.20
2023-03-15T05:02:22.490Z,2.35
2023-03-15T05:05:45.587Z,2.22
2023-03-15T05:09:05.667Z,2.55
2023-03-15T05:12:26.378Z,2.78
2023-03-15T05:15:46.730Z,2.70
2023-03-15T05:19:09.834Z,2.85
2023-03-15T05:22:25.898Z,2.78
2023-03-15T05:25:55.533Z,2.58
2023-03-15T05:29:16.062Z,2.75
2023-03-15T05:32:39.677Z,2.53
2023-03-15T05:35:56.690Z,2.53
2023-03-15T05:39:18.629Z,2.40
2023-03-15T05:42:39.024Z,2.42
2023-03-15T05:46:01.294Z,2.72
2023-03-15T05:49:30.139Z,2.33
2023-03-15T05:52:52.146Z,2.47
2023-03-15T05:56:13.211Z,2.13
2023-03-15T05:59:40.921Z,2.00
2023-03-15T06:03:01.341Z,2.73
2023-03-15T06:06:15.417Z,2.53
2023-03-15T06:09:17.385Z,2.47
2023-03-15T06:12:22.439Z,2.38
2023-03-15T06:15:24.574Z,2.60
2023-03-15T06:18:28.178Z,2.90
2023-03-15T06:21:30.382Z,2.70
2023-03-15T06:24:32.625Z,2.58
2023-03-15T06:27:35.454Z,2.92
2023-03-15T06:30:37.658Z,2.90
2023-03-15T06:33:40.008Z,2.65
2023-03-15T06:36:45.471Z,3.35
2023-03-15T06:39:47.654Z,2.83
2023-03-15T06:42:49.379Z,2.85
2023-03-15T06:45:53.786Z,2.50
2023-03-15T06:48:56.238Z,3.65
2023-03-15T06:51:58.303Z,2.80
2023-03-15T06:54:59.956Z,2.75
2023-03-15T06:58:01.760Z,2.65
2023-03-15T07:01:03.744Z,2.63
2023-03-15T07:04:08.265Z,2.83
2023-03-15T07:07:14.250Z,2.67
2023-03-15T07:10:16.570Z,3.22
2023-03-15T07:13:19.891Z,3.40
2023-03-15T07:16:22.792Z,2.83
2023-03-15T07:19:24.847Z,3.25
2023-03-15T07:22:26.713Z,2.80
2023-03-15T07:25:28.380Z,3.28
2023-03-15T07:28:30.345Z,2.97
2023-03-15T07:31:32.375Z,3.00
2023-03-15T07:34:34.060Z,2.83
2023-03-15T07:37:35.700Z,3.95
2023-03-15T07:40:37.288Z,2.58
2023-03-15T07:43:39.318Z,3.13
2023-03-15T07:46:53.164Z,3.03
2023-03-15T07:49:54.951Z,2.72
2023-03-15T07:52:56.522Z,3.03
2023-03-15T07:55:58.252Z,2.50
2023-03-15T07:59:00.248Z,3.35
2023-03-15T08:02:03.137Z,2.63
2023-03-15T08:05:05.317Z,2.88
2023-03-15T08:08:07.628Z,2.85
2023-03-15T08:11:09.400Z,2.40
2023-03-15T08:14:11.042Z,2.80
2023-03-15T08:17:14.993Z,2.33
2023-03-15T08:20:20.052Z,2.63
2023-03-15T08:23:22.044Z,2.08
2023-03-15T08:26:23.793Z,2.53
2023-03-15T08:29:25.504Z,2.50
2023-03-15T08:32:27.539Z,2.63
2023-03-15T08:35:29.605Z,2.63
2023-03-15T08:38:31.288Z,2.60
2023-03-15T08:41:33.244Z,2.67
2023-03-15T08:44:36.276Z,3.05
2023-03-15T08:47:38.445Z,2.20
2023-03-15T08:50:40.600Z,2.20
2023-03-15T08:53:42.377Z,2.47
2023-03-15T08:56:44.596Z,2.22
2023-03-15T08:59:46.238Z,2.60
2023-03-15T09:02:49.255Z,2.00
2023-03-15T09:05:55.417Z,2.33
2023-03-15T09:08:57.125Z,2.15
2023-03-15T09:11:58.825Z,2.28
2023-03-15T09:15:00.694Z,1.77
2023-03-15T09:18:03.158Z,1.45
2023-03-15T09:21:05.399Z,2.20
2023-03-15T09:24:07.157Z,2.17
2023-03-15T09:27:08.911Z,2.13
2023-03-15T09:30:11.764Z,1.52
2023-03-15T09:33:15.042Z,1.85
2023-03-15T09:36:16.825Z,1.50
2023-03-15T09:39:21.085Z,1.60
2023-03-15T09:42:31.079Z,1.50
2023-03-15T09:45:43.497Z,1.70
2023-03-15T09:48:58.480Z,1.48
2023-03-15T09:52:07.055Z,1.77
2023-03-15T09:55:25.521Z,1.55
2023-03-15T09:58:34.788Z,1.80
2023-03-15T10:01:39.855Z,1.40
2023-03-15T10:04:45.603Z,1.60
2023-03-15T10:07:47.743Z,1.52
2023-03-15T10:11:17.258Z,2.05
2023-03-15T10:14:36.433Z,1.85
2023-03-15T10:17:43.163Z,1.52
2023-03-15T10:20:53.537Z,1.40
2023-03-15T10:23:55.313Z,1.20
2023-03-15T10:27:03.108Z,1.85
2023-03-15T10:30:18.160Z,1.20
2023-03-15T10:33:39.743Z,1.02
2023-03-15T10:36:55.453Z,1.38
2023-03-15T10:39:59.226Z,1.40
2023-03-15T10:43:00.898Z,0.85
2023-03-15T10:46:10.019Z,1.00
2023-03-15T10:49:15.295Z,1.63
2023-03-15T10:52:37.199Z,1.88
2023-03-15T10:55:45.687Z,1.30
2023-03-15T10:59:02.267Z,1.15
2023-03-15T11:02:13.963Z,1.40
2023-03-15T11:05:18.316Z,1.38
2023-03-15T11:08:22.506Z,0.95
2023-03-15T11:11:24.249Z,1.50
2023-03-15T11:14:33.480Z,1.30
2023-03-15T11:17:43.254Z,1.23
2023-03-15T11:20:45.839Z,1.35
2023-03-15T11:23:50.148Z,0.90
2023-03-15T11:26:55.277Z,1.60
2023-03-15T11:29:59.755Z,1.98
2023-03-15T11:33:08.454Z,1.42
2023-03-15T11:36:20.727Z,1.20
2023-03-15T11:39:39.560Z,1.00
2023-03-15T11:43:21.686Z,0.90
2023-03-15T11:46:47.755Z,0.70
2023-03-15T11:49:52.693Z,0.88
2023-03-15T11:52:54.340Z,0.93
2023-03-15T11:55:56.065Z,0.70
2023-03-15T11:59:19.528Z,0.90
2023-03-15T12:02:24.396Z,1.00
2023-03-15T12:05:43.756Z,1.33
2023-03-15T12:08:51.445Z,1.10
2023-03-15T12:11:58.482Z,1.75
2023-03-15T12:15:20.380Z,1.17
2023-03-15T12:18:30.374Z,1.30
2023-03-15T12:21:40.265Z,1.00
2023-03-15T12:24:45.664Z,0.90
2023-03-15T12:27:51.059Z,0.77
2023-03-15T12:30:57.133Z,0.70
2023-03-15T12:34:01.447Z,0.70
2023-03-15T12:37:15.755Z,1.40
2023-03-15T12:40:25.661Z,0.90
2023-03-15T12:43:52.169Z,0.68
2023-03-15T12:46:57.046Z,0.70
2023-03-15T12:50:37.547Z,0.60
2023-03-15T12:53:46.144Z,0.60
2023-03-15T12:56:54.379Z,0.50
2023-03-15T12:59:56.156Z,0.35
2023-03-15T13:03:12.440Z,0.60
2023-03-15T13:06:43.359Z,0.38
2023-03-15T13:10:12.864Z,0.60
2023-03-15T13:13:30.194Z,0.57
2023-03-15T13:16:56.994Z,1.02
2023-03-15T13:20:13.891Z,0.60
2023-03-15T13:23:30.194Z,0.63
2023-03-15T13:26:59.369Z,0.73
2023-03-15T13:30:39.309Z,1.13
2023-03-15T13:33:41.608Z,0.70
2023-03-15T13:36:49.306Z,0.77
2023-03-15T13:40:03.590Z,0.77
2023-03-15T13:43:11.969Z,0.43
2023-03-15T13:46:13.813Z,0.90
2023-03-15T13:49:16.714Z,0.40
2023-03-15T13:52:19.086Z,0.65
2023-03-15T13:55:25.197Z,0.60
2023-03-15T13:58:27.477Z,0.45
2023-03-15T14:01:35.482Z,0.35
2023-03-15T14:04:38.263Z,0.45
2023-03-15T14:07:49.745Z,0.82
2023-03-15T14:11:00.137Z,0.60
2023-03-15T14:14:05.580Z,0.50
2023-03-15T14:17:18.658Z,0.68
2023-03-15T14:20:28.602Z,0.45
2023-03-15T14:23:31.812Z,0.70
2023-03-15T14:26:35.679Z,0.75
2023-03-15T14:29:40.509Z,0.50
2023-03-15T14:32:52.625Z,0.63
2023-03-15T14:35:58.845Z,0.77
2023-03-15T14:39:00.673Z,0.88
2023-03-15T14:42:02.266Z,0.68
2023-03-15T14:45:04.977Z,1.00
2023-03-15T14:48:18.888Z,0.68
2023-03-15T14:51:21.895Z,0.60
2023-03-15T14:54:24.156Z,0.88
2023-03-15T14:57:26.534Z,0.68
2023-03-15T15:00:29.002Z,0.80
2023-03-15T15:03:43.200Z,0.80
2023-03-15T15:06:51.594Z,2.17
2023-03-15T15:09:53.182Z,0.80
2023-03-15T15:13:05.485Z,0.70
2023-03-15T15:16:08.432Z,1.00
2023-03-15T15:19:11.386Z,0.95
2023-03-15T15:22:13.357Z,0.80
2023-03-15T15:25:24.556Z,1.35
2023-03-15T15:28:35.343Z,0.57
2023-03-15T15:31:38.409Z,1.60
2023-03-15T15:34:42.779Z,0.73
2023-03-15T15:37:46.727Z,0.60
2023-03-15T15:40:48.490Z,0.77
2023-03-15T15:43:50.675Z,0.60
2023-03-15T15:46:55.167Z,1.10
2023-03-15T15:49:56.842Z,0.88
2023-03-15T15:53:03.523Z,0.70
2023-03-15T15:56:05.383Z,0.60
2023-03-15T15:59:13.612Z,0.90
2023-03-15T16:02:22.466Z,1.00
2023-03-15T16:05:28.306Z,0.68
2023-03-15T16:08:37.773Z,0.80
2023-03-15T16:11:40.152Z,1.02
2023-03-15T16:14:43.715Z,0.73
2023-03-15T16:17:46.545Z,0.88
2023-03-15T16:20:48.985Z,0.80
2023-03-15T16:23:57.975Z,0.80
2023-03-15T16:27:02.495Z,1.05
2023-03-15T16:30:05.111Z,0.90
2023-03-15T16:33:23.798Z,1.00
2023-03-15T16:36:29.433Z,1.08
2023-03-15T16:39:31.743Z,0.90
2023-03-15T16:42:33.521Z,1.02
2023-03-15T16:45:35.192Z,0.70
2023-03-15T16:48:37.882Z,0.82
2023-03-15T16:51:44.885Z,0.90
2023-03-15T16:54:48.460Z,0.70
2023-03-15T16:57:53.879Z,0.95
2023-03-15T17:00:56.019Z,1.20
2023-03-15T17:03:58.424Z,0.63
2023-03-15T17:07:00.084Z,1.20
2023-03-15T17:10:08.430Z,0.70
2023-03-15T17:13:15.814Z,1.38
2023-03-15T17:16:17.761Z,1.00
2023-03-15T17:19:19.487Z,0.95
2023-03-15T17:22:23.080Z,0.80
2023-03-15T17:25:25.465Z,0.80
2023-03-15T17:28:29.567Z,0.82
2023-03-15T17:31:33.541Z,0.80
2023-03-15T17:34:36.707Z,0.75
2023-03-15T17:37:38.860Z,1.00
2023-03-15T17:40:41.450Z,1.10
2023-03-15T17:43:44.451Z,1.00
2023-03-15T17:46:46.440Z,0.90
2023-03-15T17:49:49.202Z,0.80
2023-03-15T17:52:55.473Z,0.93
2023-03-15T17:55:59.095Z,0.98
2023-03-15T17:59:02.825Z,0.80
2023-03-15T18:02:04.788Z,1.00
2023-03-15T18:05:15.040Z,1.13
2023-03-15T18:08:21.036Z,0.75
2023-03-15T18:11:27.495Z,1.08
2023-03-15T18:14:31.061Z,1.10
2023-03-15T18:17:35.471Z,1.17
2023-03-15T18:20:37.396Z,1.52
2023-03-15T18:23:39.449Z,1.08
2023-03-15T18:26:44.671Z,0.98
2023-03-15T18:29:46.551Z,1.20
2023-03-15T18:32:49.455Z,1.58
2023-03-15T18:35:54.538Z,1.20
2023-03-15T18:38:58.249Z,1.40
2023-03-15T18:42:00.828Z,1.40
2023-03-15T18:45:02.694Z,1.58
2023-03-15T18:48:04.605Z,1.60
2023-03-15T18:51:10.073Z,2.17
2023-03-15T18:54:11.768Z,1.63
2023-03-15T18:57:13.582Z,1.60
2023-03-15T19:00:23.840Z,1.40
2023-03-15T19:03:25.878Z,1.40
2023-03-15T19:06:27.870Z,1.65
2023-03-15T19:09:29.650Z,1.48
2023-03-15T19:12:31.940Z,1.33
2023-03-15T19:15:33.769Z,1.70
2023-03-15T19:18:40.781Z,2.30
2023-03-15T19:21:42.486Z,2.33
2023-03-15T19:24:44.171Z,2.83
2023-03-15T19:27:46.606Z,3.17
2023-03-15T19:30:49.261Z,2.38
2023-03-15T19:33:54.829Z,3.03
2023-03-15T19:36:56.547Z,4.10
2023-03-15T19:39:59.883Z,3.40
2023-03-15T19:43:01.661Z,2.65
2023-03-15T19:46:05.168Z,2.20
2023-03-15T19:49:07.085Z,1.88
2023-03-15T19:52:09.638Z,2.72
2023-03-15T19:55:20.302Z,1.95
2023-03-15T19:58:22.210Z,1.70
2023-03-15T20:01:23.920Z,1.80
2023-03-15T20:04:25.811Z,1.45
2023-03-15T20:07:29.840Z,2.00
2023-03-15T20:10:37.653Z,1.70
2023-03-15T20:13:40.827Z,1.55
2023-03-15T20:16:42.587Z,2.33
2023-03-15T20:19:44.458Z,1.80
2023-03-15T20:22:48.127Z,1.90
2023-03-15T20:25:50.911Z,1.30
2023-03-15T20:28:52.681Z,1.45
2023-03-15T20:31:54.661Z,1.90
2023-03-15T20:35:00.097Z,1.92
2023-03-15T20:38:13.215Z,1.58
2023-03-15T20:41:14.970Z,1.83
2023-03-15T20:44:16.538Z,2.30
2023-03-15T20:47:19.270Z,1.95
2023-03-15T20:50:21.054Z,1.90
2023-03-15T20:53:23.037Z,1.60
2023-03-15T20:56:26.284Z,1.50
2023-03-15T20:59:27.884Z,1.80
2023-03-15T21:02:29.610Z,1.50
2023-03-15T21:05:32.208Z,1.30
2023-03-15T21:08:34.626Z,1.25
2023-03-15T21:11:36.354Z,1.27
2023-03-15T21:14:38.497Z,1.00
2023-03-15T21:17:40.233Z,1.65
2023-03-15T21:20:42.502Z,2.42
2023-03-15T21:23:45.799Z,1.35
2023-03-15T21:26:49.214Z,1.48
2023-03-15T21:29:50.934Z,1.40
2023-03-15T21:32:52.786Z,2.22
2023-03-15T21:35:55.949Z,2.95
2023-03-15T21:38:57.626Z,3.05
2023-03-15T21:41:59.412Z,2.92
2023-03-15T21:45:01.116Z,2.42
2023-03-15T21:48:03.265Z,1.90
2023-03-15T21:51:06.051Z,1.52
2023-03-15T21:54:08.600Z,1.13
2023-03-15T21:57:12.693Z,1.60
2023-03-15T22:00:23.182Z,1.80
2023-03-15T22:03:26.259Z,1.73
2023-03-15T22:06:31.100Z,1.25
2023-03-15T22:09:32.946Z,1.40
2023-03-15T22:12:34.472Z,1.30
2023-03-15T22:15:36.237Z,1.38
2023-03-15T22:18:38.123Z,1.42
2023-03-15T22:21:39.808Z,1.75
2023-03-15T22:24:41.817Z,1.30
2023-03-15T22:27:43.939Z,1.20
2023-03-15T22:30:51.909Z,1.55
2023-03-15T22:33:53.678Z,1.50
2023-03-15T22:36:55.389Z,1.40
2023-03-15T22:39:57.023Z,1.63
2023-03-15T22:42:58.771Z,1.60
2023-03-15T22:46:00.885Z,1.27
2023-03-15T22:49:03.432Z,1.52
2023-03-15T22:52:05.277Z,1.50
2023-03-15T22:55:08.115Z,1.50
2023-03-15T22:58:09.848Z,1.60
2023-03-15T23:01:11.434Z,1.77
2023-03-15T23:04:13.107Z,1.70
2023-03-15T23:07:15.161Z,1.63
2023-03-15T23:10:16.969Z,1.63
2023-03-15T23:13:18.776Z,1.50
2023-03-15T23:16:20.803Z,1.40
2023-03-15T23:19:22.604Z,1.42
2023-03-15T23:22:24.348Z,1.70
2023-03-15T23:25:35.813Z,1.98
2023-03-15T23:28:37.462Z,1.80
2023-03-15T23:31:40.901Z,2.00
2023-03-15T23:34:42.709Z,2.10
2023-03-15T23:37:44.500Z,2.30
2023-03-15T23:40:54.126Z,2.47
2023-03-15T23:43:55.980Z,2.08
2023-03-15T23:46:57.751Z,2.20
2023-03-15T23:49:59.634Z,2.45
2023-03-15T23:53:01.283Z,2.03
2023-03-15T23:56:03.194Z,2.33
2023-03-15T23:59:04.767Z,2.00
